Time;durP1;ratioP1;P1;durP2;ratioP2;P2;SDS_P1;SDS_P2;PMS_P1;PMS_P2;Temp;Humidity;BMP_temperature;BMP_pressure;BME280_temperature;BME280_humidity;BME280_pressure;Samples;Min_cycle;Max_cycle;Signal;HPM_P1;HPM_P2
2022/10/26 00:03:17;;;;;;;0.50;0.47;;;;;;;7.80;100.00;101898.66;10601916;27;20126;-79
2022/10/26 00:08:18;;;;;;;0.10;0.10;;;;;;;7.86;100.00;101900.66;10602389;27;20051;-79
2022/10/26 00:13:20;;;;;;;0.40;0.20;;;;;;;7.92;100.00;101901.91;10608708;27;20042;-78
2022/10/26 00:18:22;;;;;;;0.50;0.22;;;;;;;7.85;100.00;101888.66;10609787;27;20072;-79
2022/10/26 00:23:23;;;;;;;1.13;0.30;;;;;;;8.21;100.00;101894.81;10612051;27;20084;-78
2022/10/26 00:28:25;;;;;;;3.58;0.73;;;;;;;8.49;100.00;101906.53;10588476;27;20125;-78
2022/10/26 00:33:28;;;;;;;1.13;0.75;;;;;;;8.55;100.00;101906.84;10569049;27;20458;-79
2022/10/26 00:38:30;;;;;;;0.47;0.47;;;;;;;8.54;100.00;101893.91;10599205;28;20043;-78
2022/10/26 00:43:37;;;;;;;0.43;0.40;;;;;;;8.45;100.00;101898.56;10599515;28;20478;-79
2022/10/26 00:48:43;;;;;;;0.20;0.20;;;;;;;8.48;100.00;101886.78;10616509;28;20528;-79
2022/10/26 00:53:45;;;;;;;0.43;0.30;;;;;;;8.63;100.00;101890.91;10595490;28;20126;-78
2022/10/26 00:58:47;;;;;;;4.75;0.80;;;;;;;8.69;100.00;101898.94;10608826;28;20043;-78
2022/10/26 01:03:48;;;;;;;0.40;0.30;;;;;;;8.73;100.00;101885.44;10610232;28;20066;-78
2022/10/26 01:08:50;;;;;;;2.10;0.47;;;;;;;8.67;100.00;101877.44;10597888;28;20046;-79
2022/10/26 01:13:54;;;;;;;0.45;0.43;;;;;;;8.78;100.00;101871.13;10597333;28;20047;-78
2022/10/26 01:19:17;;;;;;;1.23;0.80;;;;;;;8.73;100.00;101872.59;10597719;27;20134;-78
2022/10/26 01:24:40;;;;;;;1.52;0.43;;;;;;;8.69;100.00;101861.28;10606198;28;20070;-79
2022/10/26 01:30:13;;;;;;;0.73;0.57;;;;;;;8.76;100.00;101854.75;10606272;28;20052;-78
2022/10/26 01:35:20;;;;;;;0.38;0.32;;;;;;;8.83;100.00;101845.66;10585123;28;20058;-79
2022/10/26 01:40:28;;;;;;;1.25;0.45;;;;;;;8.84;100.00;101838.00;10610731;28;20148;-79
2022/10/26 01:45:32;;;;;;;0.88;0.63;;;;;;;8.91;100.00;101835.72;10567853;28;1023266;-79
2022/10/26 01:50:34;;;;;;;0.38;0.28;;;;;;;8.89;100.00;101821.16;10604341;27;20609;-79
2022/10/26 01:55:52;;;;;;;1.40;0.90;;;;;;;8.89;100.00;101816.00;10608433;27;20035;-78
2022/10/26 02:01:21;;;;;;;0.40;0.28;;;;;;;8.95;100.00;101799.09;10613544;27;20499;-78
2022/10/26 02:06:42;;;;;;;0.38;0.30;;;;;;;9.08;100.00;101796.28;10613507;27;20039;-79
2022/10/26 02:11:46;;;;;;;0.35;0.30;;;;;;;9.01;100.00;101791.66;10622711;27;20134;-79
2022/10/26 02:17:06;;;;;;;0.20;0.20;;;;;;;9.08;100.00;101786.00;10623991;27;20071;-78
2022/10/26 02:22:19;;;;;;;0.35;0.35;;;;;;;9.09;100.00;101787.78;10621378;27;20102;-79
2022/10/26 02:27:25;;;;;;;0.32;0.30;;;;;;;9.19;100.00;101800.25;10604954;27;20375;-79
2022/10/26 02:32:33;;;;;;;0.20;0.20;;;;;;;9.19;100.00;101800.25;10608207;27;20104;-79
2022/10/26 02:37:37;;;;;;;1.40;0.90;;;;;;;9.30;100.00;101799.84;10598473;27;20043;-79
2022/10/26 02:42:43;;;;;;;0.47;0.35;;;;;;;9.34;100.00;101792.34;10612586;27;20547;-78
2022/10/26 02:47:44;;;;;;;0.77;0.45;;;;;;;9.29;100.00;101780.06;10603693;27;20130;-78
2022/10/26 02:53:11;;;;;;;0.10;0.10;;;;;;;9.43;100.00;101778.13;10640379;27;20066;-79
2022/10/26 02:58:21;;;;;;;0.28;0.28;;;;;;;9.50;100.00;101769.88;10626600;27;20051;-79
2022/10/26 03:03:22;;;;;;;0.65;0.65;;;;;;;9.51;100.00;101761.34;10604853;27;20037;-78
2022/10/26 03:08:24;;;;;;;0.47;0.47;;;;;;;9.55;100.00;101741.78;10616052;27;20054;-78
2022/10/26 03:13:26;;;;;;;1.13;0.95;;;;;;;9.54;100.00;101735.75;10593271;27;20043;-79
2022/10/26 03:18:27;;;;;;;0.50;0.40;;;;;;;9.65;100.00;101728.50;10618359;27;20090;-79
2022/10/26 03:23:29;;;;;;;0.43;0.30;;;;;;;9.62;100.00;101729.25;10599685;27;20067;-78
2022/10/26 03:28:30;;;;;;;0.40;0.35;;;;;;;9.78;100.00;101728.22;10621358;27;20122;-79
2022/10/26 03:33:32;;;;;;;1.10;0.50;;;;;;;9.88;100.00;101715.72;10588935;27;20063;-78
2022/10/26 03:38:33;;;;;;;0.55;0.43;;;;;;;9.84;100.00;101705.31;10619154;27;20066;-79
2022/10/26 03:43:35;;;;;;;0.98;0.60;;;;;;;9.77;100.00;101693.00;10617352;27;20058;-79
2022/10/26 03:48:36;;;;;;;0.73;0.25;;;;;;;9.74;100.00;101687.72;10601612;27;20093;-79
2022/10/26 03:53:38;;;;;;;1.95;0.47;;;;;;;9.79;100.00;101686.22;10612057;27;20071;-79
2022/10/26 03:58:40;;;;;;;3.13;0.50;;;;;;;9.81;100.00;101705.16;10594890;27;20138;-79
2022/10/26 04:03:41;;;;;;;0.47;0.22;;;;;;;9.83;100.00;101682.97;10602214;27;20039;-78
2022/10/26 04:08:43;;;;;;;0.45;0.40;;;;;;;9.86;100.00;101691.63;10607653;27;20129;-79
2022/10/26 04:13:46;;;;;;;0.60;0.55;;;;;;;9.95;100.00;101695.47;10600481;27;20047;-79
2022/10/26 04:18:48;;;;;;;0.75;0.30;;;;;;;10.02;100.00;101688.84;10607455;27;20053;-80
2022/10/26 04:23:49;;;;;;;0.13;0.10;;;;;;;10.00;100.00;101685.34;10604218;27;20533;-76
2022/10/26 04:28:51;;;;;;;1.08;0.68;;;;;;;10.02;100.00;101678.56;10605267;27;20047;-77
2022/10/26 04:33:53;;;;;;;1.92;1.02;;;;;;;10.11;100.00;101686.66;10606315;27;20035;-77
2022/10/26 04:38:54;;;;;;;0.40;0.40;;;;;;;10.12;100.00;101675.53;10606791;28;20079;-76
2022/10/26 04:43:56;;;;;;;0.32;0.20;;;;;;;10.20;100.00;101678.41;10586875;28;20419;-78
2022/10/26 04:48:58;;;;;;;0.10;0.10;;;;;;;10.15;100.00;101664.47;10592389;28;20125;-77
2022/10/26 04:54:01;;;;;;;0.30;0.20;;;;;;;10.19;100.00;101675.78;10623689;28;20122;-77
2022/10/26 04:59:03;;;;;;;0.32;0.20;;;;;;;10.25;100.00;101679.50;10613597;28;20055;-76
2022/10/26 05:04:04;;;;;;;0.30;0.30;;;;;;;10.23;100.00;101677.69;10621827;28;20077;-76
2022/10/26 05:09:06;;;;;;;0.93;0.28;;;;;;;10.31;100.00;101678.88;10552324;28;20052;-76
2022/10/26 05:14:08;;;;;;;0.25;0.25;;;;;;;10.25;100.00;101676.91;10590017;28;20043;-77
2022/10/26 05:19:10;;;;;;;0.20;0.20;;;;;;;10.16;100.00;101672.25;10580981;28;20048;-77
2022/10/26 05:24:11;;;;;;;0.35;0.28;;;;;;;10.08;100.00;101658.22;10602710;27;20043;-77
2022/10/26 05:29:13;;;;;;;4.65;0.35;;;;;;;10.06;100.00;101659.84;10624967;27;20051;-77
2022/10/26 05:34:15;;;;;;;0.32;0.10;;;;;;;10.08;100.00;101653.09;10560175;27;20130;-76
2022/10/26 05:39:16;;;;;;;0.30;0.30;;;;;;;10.01;100.00;101656.22;10631483;27;20047;-77
2022/10/26 05:44:18;;;;;;;0.38;0.22;;;;;;;10.02;100.00;101651.94;10631022;27;20400;-77
2022/10/26 05:49:19;;;;;;;0.93;0.38;;;;;;;10.13;100.00;101660.97;10613106;27;20050;-76
2022/10/26 05:54:21;;;;;;;0.85;0.20;;;;;;;10.12;100.00;101659.22;10580347;28;20096;-77
2022/10/26 05:59:23;;;;;;;0.13;0.10;;;;;;;10.16;100.00;101661.09;10584609;28;20044;-77
2022/10/26 06:04:42;;;;;;;0.38;0.32;;;;;;;10.26;100.00;101662.34;10615207;27;20043;-76
2022/10/26 06:09:44;;;;;;;0.47;0.32;;;;;;;10.31;100.00;101666.00;10612000;27;20088;-76
2022/10/26 06:14:46;;;;;;;0.40;0.32;;;;;;;10.40;100.00;101676.66;10612223;27;20050;-77
2022/10/26 06:20:21;;;;;;;0.52;0.47;;;;;;;10.45;100.00;101675.16;10655035;27;20039;-77
2022/10/26 06:25:46;;;;;;;0.10;0.10;;;;;;;10.56;100.00;101661.78;10575183;27;20046;-77
2022/10/26 06:30:48;;;;;;;0.55;0.22;;;;;;;10.67;100.00;101649.31;10594374;27;20035;-76
2022/10/26 06:36:02;;;;;;;0.52;0.52;;;;;;;10.76;100.00;101655.69;10586495;28;20085;-77
2022/10/26 06:41:04;;;;;;;0.35;0.35;;;;;;;10.95;100.00;101658.97;10568485;28;20054;-78
2022/10/26 06:46:23;;;;;;;0.43;0.38;;;;;;;11.03;100.00;101664.38;10568118;28;20131;-77
2022/10/26 06:51:26;;;;;;;0.52;0.22;;;;;;;11.10;100.00;101666.34;10567779;28;20403;-77
2022/10/26 06:56:28;;;;;;;2.00;0.75;;;;;;;11.10;100.00;101659.50;10599243;27;20075;-76
2022/10/26 07:01:29;;;;;;;0.17;0.17;;;;;;;11.21;100.00;101653.84;10596438;27;20122;-77
2022/10/26 07:06:31;;;;;;;0.28;0.25;;;;;;;11.34;100.00;101650.00;10566808;28;20063;-78
2022/10/26 07:11:38;;;;;;;2.90;1.13;;;;;;;11.48;100.00;101653.06;10606171;27;20562;-77
2022/10/26 07:16:40;;;;;;;1.27;0.80;;;;;;;11.59;100.00;101641.38;10608583;27;20071;-77
2022/10/26 07:21:41;;;;;;;0.20;0.20;;;;;;;11.72;100.00;101628.09;10627309;27;20452;-77
2022/10/26 07:26:43;;;;;;;0.00;0.00;;;;;;;11.88;100.00;101623.38;10608504;27;20039;-76
2022/10/26 07:31:44;;;;;;;0.40;0.20;;;;;;;12.11;100.00;101616.41;10608451;27;20134;-77
2022/10/26 07:36:46;;;;;;;0.20;0.20;;;;;;;12.33;100.00;101612.78;10626587;27;20067;-78
2022/10/26 07:41:47;;;;;;;0.35;0.22;;;;;;;12.72;100.00;101594.91;10607964;27;20443;-77
2022/10/26 07:46:50;;;;;;;0.30;0.20;;;;;;;13.11;100.00;101574.44;10607525;27;20096;-78
2022/10/26 07:51:52;;;;;;;0.03;0.03;;;;;;;13.27;100.00;101554.13;10607894;27;20055;-77
2022/10/26 07:56:53;;;;;;;1.55;0.68;;;;;;;14.47;100.00;101519.72;10568500;28;20566;-77
2022/10/26 08:01:55;;;;;;;0.32;0.20;;;;;;;14.93;100.00;101433.25;10583039;28;20047;-78
2022/10/26 08:06:56;;;;;;;0.10;0.10;;;;;;;13.64;100.00;101478.28;10564697;28;20138;-78
2022/10/26 08:11:58;;;;;;;0.38;0.35;;;;;;;14.34;100.00;101494.38;10582758;28;20054;-78
2022/10/26 08:16:59;;;;;;;0.52;0.13;;;;;;;15.15;100.00;101434.47;10582683;28;20063;-77
2022/10/26 08:22:01;;;;;;;0.55;0.28;;;;;;;16.19;100.00;101389.94;10564453;28;20085;-77
2022/10/26 08:27:03;;;;;;;0.38;0.10;;;;;;;16.00;100.00;101389.75;10582523;28;20372;-77
2022/10/26 08:32:04;;;;;;;0.30;0.17;;;;;;;15.85;100.00;101400.84;10582513;28;20480;-77
2022/10/26 08:37:06;;;;;;;0.10;0.10;;;;;;;16.01;100.00;101395.81;10605377;28;20085;-77
2022/10/26 08:42:10;;;;;;;0.32;0.20;;;;;;;16.27;100.00;101395.25;10624501;28;20083;-77
2022/10/26 08:47:18;;;;;;;0.40;0.40;;;;;;;16.23;100.00;101396.03;10624323;28;20058;-77
2022/10/26 08:52:28;;;;;;;0.05;0.05;;;;;;;16.54;100.00;101393.75;10625364;28;20113;-77
2022/10/26 08:57:38;;;;;;;0.10;0.10;;;;;;;16.90;100.00;101395.75;10606225;27;20053;-77
2022/10/26 09:02:40;;;;;;;0.28;0.15;;;;;;;16.67;100.00;101393.00;10614558;27;20043;-78
2022/10/26 09:07:41;;;;;;;1.27;0.55;;;;;;;17.04;100.00;101403.72;10614296;27;20081;-78
2022/10/26 09:12:51;;;;;;;2.65;0.10;;;;;;;15.70;100.00;101426.59;10614101;27;20093;-79
2022/10/26 09:18:02;;;;;;;0.75;0.32;;;;;;;16.56;100.00;101410.25;10632188;27;20041;-77
2022/10/26 09:23:17;;;;;;;0.20;0.20;;;;;;;15.98;100.00;101426.94;10632490;27;20126;-77
2022/10/26 09:28:20;;;;;;;0.47;0.30;;;;;;;16.13;100.00;101432.34;10613340;27;20389;-77
2022/10/26 09:33:23;;;;;;;0.22;0.22;;;;;;;17.07;100.00;101428.91;10613195;27;20130;-78
2022/10/26 09:38:45;;;;;;;0.22;0.08;;;;;;;17.70;100.00;101416.25;10631265;27;20049;-78
2022/10/26 09:44:07;;;;;;;0.20;0.20;;;;;;;17.28;100.00;101423.84;10631426;27;20453;-76
2022/10/26 09:56:12;;;;;;;0.52;0.10;;;;;;;17.83;100.00;101437.16;10631475;27;20106;-77
2022/10/26 10:08:18;;;;;;;;;;;;;;;17.92;100.00;101437.19;10653666;27;20110;-77
2022/10/26 10:13:21;;;;;;;0.10;0.10;;;;;;;18.31;100.00;101440.81;10653089;27;19950;-78
2022/10/26 10:25:30;;;;;;;2.17;0.43;;;;;;;18.45;100.00;101432.16;10630539;27;20072;-76
2022/10/26 10:30:32;;;;;;;0.00;0.00;;;;;;;18.73;100.00;101443.50;10611255;27;20113;-77
2022/10/26 10:35:34;;;;;;;0.20;0.20;;;;;;;18.35;100.00;101452.13;10629060;27;20036;-77
2022/10/26 10:40:36;;;;;;;0.45;0.20;;;;;;;18.13;100.00;101456.44;10611098;27;20142;-77
2022/10/26 10:45:39;;;;;;;1.02;0.70;;;;;;;17.98;100.00;101468.56;10598008;27;20035;-77
2022/10/26 10:51:31;;;;;;;0.52;0.15;;;;;;;18.39;100.00;101480.84;10568229;28;20590;-77
2022/10/26 10:56:38;;;;;;;0.10;0.10;;;;;;;18.18;100.00;101492.06;10585682;28;20086;-78
2022/10/26 11:01:49;;;;;;;0.20;0.20;;;;;;;18.25;100.00;101492.97;10586828;28;20051;-78
2022/10/26 11:06:56;;;;;;;0.20;0.15;;;;;;;18.77;100.00;101491.34;10567457;28;20069;-77
2022/10/26 11:12:05;;;;;;;1.95;1.17;;;;;;;19.29;100.00;101490.50;10585195;28;20487;-78
2022/10/26 11:17:23;;;;;;;0.45;0.45;;;;;;;19.03;100.00;101491.41;10566637;28;20047;-77
2022/10/26 11:22:29;;;;;;;1.17;0.52;;;;;;;19.24;100.00;101495.75;10620722;27;20126;-77
2022/10/26 11:27:36;;;;;;;1.17;0.30;;;;;;;19.21;100.00;101507.97;10608883;27;20035;-78
2022/10/26 11:32:45;;;;;;;1.45;0.45;;;;;;;19.39;100.00;101512.28;10609032;27;20126;-76
2022/10/26 11:37:55;;;;;;;0.15;0.10;;;;;;;18.97;100.00;101518.38;10627564;27;20039;-78
2022/10/26 11:43:10;;;;;;;0.30;0.30;;;;;;;19.32;100.00;101517.50;10626451;27;20395;-78
2022/10/26 11:48:23;;;;;;;1.02;0.50;;;;;;;19.88;100.00;101512.22;10626363;27;20047;-76
2022/10/26 11:53:38;;;;;;;0.20;0.20;;;;;;;19.56;100.00;101523.56;10607620;27;20508;-77
2022/10/26 11:58:40;;;;;;;0.00;0.00;;;;;;;19.43;100.00;101524.47;10626650;27;20122;-77
2022/10/26 12:10:40;;;;;;;0.60;0.30;;;;;;;20.54;100.00;101518.03;10625888;27;20031;-78
2022/10/26 12:15:53;;;;;;;0.10;0.03;;;;;;;19.60;100.00;101522.72;10578753;28;20071;-77
2022/10/26 12:21:07;;;;;;;1.65;0.98;;;;;;;20.12;100.00;101531.31;10539616;28;20541;-77
2022/10/26 12:26:27;;;;;;;0.52;0.45;;;;;;;19.67;100.00;101554.91;10539830;28;20040;-78
2022/10/26 12:31:31;;;;;;;0.00;0.00;;;;;;;20.06;100.00;101558.34;10539891;28;20043;-77
2022/10/26 12:36:55;;;;;;;1.00;0.77;;;;;;;19.71;100.00;101567.13;10539640;28;20036;-78
2022/10/26 12:42:09;;;;;;;0.20;0.20;;;;;;;19.64;100.00;101581.94;10586046;27;20047;-78
2022/10/26 12:47:31;;;;;;;0.43;0.10;;;;;;;18.88;100.00;101580.97;10612878;28;20044;-77
2022/10/26 12:52:39;;;;;;;1.02;0.88;;;;;;;19.70;100.00;101574.94;10581592;28;20043;-77
2022/10/26 12:58:02;;;;;;;0.70;0.28;;;;;;;19.69;100.00;101579.31;10563251;28;20039;-78
2022/10/26 13:03:45;;;;;;;0.95;0.50;;;;;;;19.42;100.00;101586.31;10581655;28;20418;-78
2022/10/26 13:08:51;;;;;;;0.68;0.68;;;;;;;20.03;100.00;101570.56;10562946;28;20128;-78
2022/10/26 13:14:03;;;;;;;4.30;0.30;;;;;;;20.23;100.00;101571.38;10577921;28;20040;-77
2022/10/26 13:19:38;;;;;;;0.30;0.30;;;;;;;19.87;100.00;101577.59;10562708;28;20047;-77
2022/10/26 13:24:47;;;;;;;0.50;0.20;;;;;;;19.85;100.00;101588.03;10562643;28;20049;-78
2022/10/26 13:30:04;;;;;;;0.38;0.38;;;;;;;20.08;100.00;101582.78;10581571;28;20460;-77
2022/10/26 13:35:12;;;;;;;0.88;0.52;;;;;;;19.63;100.00;101590.66;10538481;28;20040;-77
2022/10/26 13:40:17;;;;;;;0.98;0.30;;;;;;;19.74;100.00;101597.63;10539552;28;20080;-78
2022/10/26 13:45:28;;;;;;;0.00;0.00;;;;;;;19.94;100.00;101601.09;10567820;28;20497;-77
2022/10/26 13:50:55;;;;;;;0.28;0.20;;;;;;;20.34;100.00;101599.25;10588088;28;20488;-77
2022/10/26 13:56:04;;;;;;;0.20;0.08;;;;;;;20.09;100.00;101604.56;10587920;28;20035;-78
2022/10/26 14:01:08;;;;;;;2.05;0.55;;;;;;;20.27;100.00;101612.38;10591338;28;20463;-77
2022/10/26 14:06:22;;;;;;;0.45;0.28;;;;;;;19.68;100.00;101619.41;10569404;28;20036;-78
2022/10/26 14:11:34;;;;;;;0.20;0.20;;;;;;;19.91;100.00;101616.81;10587297;28;20122;-77
2022/10/26 14:16:45;;;;;;;0.00;0.00;;;;;;;19.32;100.00;101610.69;10569076;28;20073;-77
2022/10/26 14:21:49;;;;;;;0.52;0.25;;;;;;;19.27;100.00;101621.13;10587998;28;20047;-77
2022/10/26 14:26:51;;;;;;;0.00;0.00;;;;;;;19.29;100.00;101615.91;10586876;28;20074;-77
2022/10/26 14:31:53;;;;;;;1.10;0.30;;;;;;;19.16;100.00;101631.56;10568335;28;20565;-77
2022/10/26 14:37:00;;;;;;;1.27;0.30;;;;;;;19.16;100.00;101641.16;10586187;28;20054;-77
2022/10/26 14:42:14;;;;;;;0.00;0.00;;;;;;;19.01;100.00;101632.44;10586338;28;20045;-77
2022/10/26 14:47:34;;;;;;;0.20;0.20;;;;;;;18.75;100.00;101654.91;10570045;28;20036;-78
2022/10/26 14:52:36;;;;;;;0.15;0.10;;;;;;;18.73;100.00;101656.66;10586322;28;20481;-77
2022/10/26 14:57:41;;;;;;;0.10;0.10;;;;;;;18.58;100.00;101668.75;10583461;28;20054;-76
2022/10/26 15:02:45;;;;;;;0.20;0.20;;;;;;;18.41;100.00;101680.84;10584785;28;20075;-77
2022/10/26 15:07:47;;;;;;;0.05;0.05;;;;;;;18.33;100.00;101689.50;10584643;28;20039;-77
2022/10/26 15:12:49;;;;;;;1.85;1.10;;;;;;;18.30;100.00;101693.84;10584859;28;20044;-77
2022/10/26 15:17:53;;;;;;;0.52;0.15;;;;;;;18.42;100.00;101708.69;10608916;27;20056;-77
2022/10/26 15:22:56;;;;;;;0.20;0.20;;;;;;;18.18;100.00;101703.31;10608980;27;20444;-77
2022/10/26 15:28:22;;;;;;;0.28;0.28;;;;;;;18.10;100.00;101718.03;10627181;27;20122;-78
2022/10/26 15:33:23;;;;;;;0.13;0.13;;;;;;;17.95;100.00;101728.28;10628425;27;20509;-77
2022/10/26 15:38:25;;;;;;;0.10;0.10;;;;;;;17.91;100.00;101722.19;10609627;27;20039;-76
2022/10/26 15:43:32;;;;;;;1.80;0.30;;;;;;;17.77;100.00;101735.97;10627633;27;20055;-77
2022/10/26 15:48:34;;;;;;;0.28;0.15;;;;;;;17.71;100.00;101743.72;10608148;27;20067;-77
2022/10/26 15:53:36;;;;;;;0.00;0.00;;;;;;;17.73;100.00;101749.84;10626155;27;20047;-77
2022/10/26 15:58:38;;;;;;;0.00;0.00;;;;;;;17.53;100.00;101751.38;10627503;27;20118;-76
2022/10/26 16:03:39;;;;;;;0.00;0.00;;;;;;;17.31;100.00;101765.88;10607384;27;20103;-77
2022/10/26 16:08:47;;;;;;;1.00;0.75;;;;;;;17.03;100.00;101778.56;10606765;27;20514;-77
2022/10/26 16:13:48;;;;;;;0.28;0.15;;;;;;;16.70;100.00;101840.53;10608458;27;20126;-77
2022/10/26 16:18:55;;;;;;;0.30;0.10;;;;;;;16.71;100.00;101857.91;10625253;27;20035;-77
2022/10/26 16:24:17;;;;;;;0.00;0.00;;;;;;;16.60;100.00;101864.66;10625111;27;20050;-76
2022/10/26 16:29:19;;;;;;;1.75;0.50;;;;;;;16.56;100.00;101883.66;10626128;27;20043;-76
2022/10/26 16:34:21;;;;;;;0.20;0.20;;;;;;;16.26;100.00;101900.50;10625906;27;20391;-76
2022/10/26 16:39:22;;;;;;;0.03;0.03;;;;;;;16.07;100.00;101931.31;10625198;27;20043;-77
2022/10/26 16:44:24;;;;;;;0.45;0.20;;;;;;;16.20;100.00;101952.34;10624525;27;20089;-77
2022/10/26 16:49:25;;;;;;;0.20;0.20;;;;;;;16.11;100.00;101979.94;10625747;28;20122;-78
2022/10/26 16:54:29;;;;;;;0.08;0.08;;;;;;;16.21;100.00;102016.50;10624342;28;20121;-78
2022/10/26 16:59:31;;;;;;;0.52;0.47;;;;;;;16.54;100.00;102011.09;10624366;28;20051;-77
2022/10/26 17:04:32;;;;;;;0.10;0.10;;;;;;;16.72;100.00;101968.06;10624235;28;20049;-77
2022/10/26 17:09:34;;;;;;;0.35;0.32;;;;;;;16.78;100.00;101945.63;10605588;28;20043;-77
2022/10/26 17:14:36;;;;;;;0.28;0.20;;;;;;;16.78;100.00;101948.22;10623872;28;20047;-78
2022/10/26 17:19:38;;;;;;;0.57;0.30;;;;;;;16.74;100.00;101962.03;10591100;27;20090;-77
2022/10/26 17:24:41;;;;;;;0.10;0.00;;;;;;;16.74;100.00;101967.22;10632107;27;20075;-78
2022/10/26 17:29:42;;;;;;;0.32;0.32;;;;;;;16.72;100.00;101979.31;10632192;27;20482;-77
2022/10/26 17:34:44;;;;;;;1.23;0.20;;;;;;;16.76;100.00;101981.16;10632841;27;20057;-78
2022/10/26 17:39:46;;;;;;;0.55;0.38;;;;;;;16.76;100.00;101973.34;10613261;27;20490;-78
2022/10/26 17:44:47;;;;;;;0.35;0.20;;;;;;;16.67;100.00;101969.72;10632285;27;20134;-78
2022/10/26 17:56:44;;;;;;;0.30;0.25;;;;;;;16.34;100.00;101997.72;10630842;27;20456;-77
2022/10/26 18:01:46;;;;;;;0.32;0.13;;;;;;;16.06;100.00;102012.75;10612274;27;20137;-77
2022/10/26 18:06:48;;;;;;;0.00;0.00;;;;;;;15.90;100.00;102031.47;10631037;27;20542;-77
2022/10/26 18:11:49;;;;;;;0.80;0.60;;;;;;;15.71;100.00;102046.59;10630865;27;20042;-78
2022/10/26 18:16:56;;;;;;;0.20;0.20;;;;;;;15.58;100.00;102066.22;10614469;27;20438;-77
2022/10/26 18:21:57;;;;;;;0.20;0.20;;;;;;;15.53;100.00;102084.28;10611354;27;20138;-78
2022/10/26 18:26:59;;;;;;;0.00;0.00;;;;;;;15.44;100.00;102093.56;10629817;27;20067;-77
2022/10/26 18:32:00;;;;;;;0.30;0.20;;;;;;;15.35;100.00;102107.22;10610655;27;20043;-78
2022/10/26 18:37:02;;;;;;;0.00;0.00;;;;;;;15.10;100.00;102124.75;10629804;27;20114;-77
2022/10/26 18:42:04;;;;;;;6.35;1.65;;;;;;;15.01;100.00;102140.06;10629035;27;20074;-78
2022/10/26 18:47:05;;;;;;;0.17;0.10;;;;;;;14.82;100.00;102170.69;10628741;27;20074;-77
2022/10/26 18:52:07;;;;;;;0.70;0.28;;;;;;;14.89;100.00;102180.41;10610435;27;20070;-77
2022/10/26 18:57:09;;;;;;;0.45;0.35;;;;;;;15.02;100.00;102178.16;10628410;27;20118;-77
2022/10/26 19:02:13;;;;;;;0.20;0.10;;;;;;;14.96;100.00;102178.00;10628289;27;20054;-77
2022/10/26 19:07:14;;;;;;;4.85;1.13;;;;;;;14.95;100.00;102186.59;10628249;27;20039;-77
2022/10/26 19:12:16;;;;;;;0.65;0.55;;;;;;;14.93;100.00;102196.09;10627782;27;20077;-76
2022/10/26 19:17:17;;;;;;;0.38;0.38;;;;;;;14.90;100.00;102205.53;10610397;27;20135;-76
2022/10/26 19:22:19;;;;;;;0.35;0.35;;;;;;;14.74;100.00;102214.56;10609203;27;20051;-76
2022/10/26 19:27:20;;;;;;;0.10;0.10;;;;;;;14.86;100.00;102221.81;10627759;27;20053;-76
2022/10/26 19:32:26;;;;;;;0.30;0.20;;;;;;;14.79;100.00;102212.09;10627327;27;20107;-76
2022/10/26 19:37:28;;;;;;;0.30;0.30;;;;;;;14.84;100.00;102215.75;10608994;27;20501;-77
2022/10/26 19:42:29;;;;;;;0.10;0.10;;;;;;;14.77;100.00;102224.19;10625940;27;20042;-76
2022/10/26 19:47:31;;;;;;;0.10;0.10;;;;;;;14.72;100.00;102229.22;10608424;27;20070;-77
2022/10/26 19:52:32;;;;;;;0.63;0.55;;;;;;;14.70;100.00;102237.78;10608799;27;20081;-77
2022/10/26 19:57:34;;;;;;;0.82;0.45;;;;;;;14.60;100.00;102246.94;10625951;27;20126;-77
2022/10/26 20:02:35;;;;;;;0.22;0.22;;;;;;;14.46;100.00;102258.59;10608749;27;20043;-78
2022/10/26 20:07:37;;;;;;;0.15;0.15;;;;;;;14.17;100.00;102282.78;10625905;27;20123;-77
2022/10/26 20:12:39;;;;;;;0.17;0.13;;;;;;;14.27;100.00;102294.31;10607977;27;20051;-77
2022/10/26 20:17:41;;;;;;;0.00;0.00;;;;;;;14.28;100.00;102296.97;10607264;27;20046;-77
2022/10/26 20:22:47;;;;;;;1.27;0.57;;;;;;;14.17;100.00;102295.75;10626422;27;20043;-77
2022/10/26 20:27:49;;;;;;;0.40;0.32;;;;;;;14.16;100.00;102306.94;10625377;27;20471;-77
2022/10/26 20:32:51;;;;;;;0.20;0.20;;;;;;;14.26;100.00;102319.34;10624983;27;20092;-77
2022/10/26 20:37:54;;;;;;;0.32;0.20;;;;;;;14.19;100.00;102319.97;10625803;27;20457;-77
2022/10/26 20:42:56;;;;;;;0.20;0.20;;;;;;;14.15;100.00;102338.84;10606517;27;20043;-77
2022/10/26 20:47:59;;;;;;;0.30;0.25;;;;;;;14.07;100.00;102348.94;10605981;28;20126;-77
2022/10/26 20:53:09;;;;;;;0.70;0.52;;;;;;;13.91;100.00;102352.72;10625631;27;20130;-77
2022/10/26 20:58:14;;;;;;;0.60;0.40;;;;;;;13.79;100.00;102375.59;10633328;27;20070;-77
2022/10/26 21:03:15;;;;;;;0.75;0.75;;;;;;;13.59;100.00;102378.34;10633429;27;20504;-77
2022/10/26 21:08:17;;;;;;;0.10;0.10;;;;;;;13.84;100.00;102391.31;10614384;27;20143;-78
2022/10/26 21:13:18;;;;;;;0.82;0.50;;;;;;;13.85;100.00;102391.38;10614422;27;20561;-78
2022/10/26 21:18:20;;;;;;;1.25;0.50;;;;;;;13.75;100.00;102387.56;10614165;27;20051;-78
2022/10/26 21:23:21;;;;;;;1.38;0.55;;;;;;;13.86;100.00;102395.72;10614045;27;20051;-78
2022/10/26 21:28:23;;;;;;;1.08;0.40;;;;;;;13.98;100.00;102400.47;10632079;27;20110;-77
2022/10/26 21:33:30;;;;;;;0.68;0.40;;;;;;;13.79;100.00;102406.69;10613464;27;20054;-78
2022/10/26 21:38:32;;;;;;;1.13;0.50;;;;;;;13.63;100.00;102413.00;10613754;27;20043;-77
2022/10/26 21:44:24;;;;;;;0.60;0.60;;;;;;;13.60;100.00;102424.13;10636153;27;20531;-78
2022/10/26 21:49:41;;;;;;;0.20;0.20;;;;;;;13.90;100.00;102418.31;10598385;28;20043;-77
2022/10/26 21:54:47;;;;;;;0.03;0.03;;;;;;;13.86;100.00;102412.97;10614739;27;20092;-77
2022/10/26 21:59:49;;;;;;;0.43;0.30;;;;;;;13.75;100.00;102415.16;10630839;27;20118;-77
2022/10/26 22:04:51;;;;;;;0.10;0.10;;;;;;;13.80;100.00;102411.06;10611829;27;20076;-78
2022/10/26 22:09:53;;;;;;;0.73;0.57;;;;;;;13.73;100.00;102429.78;10612141;27;20066;-77
2022/10/26 22:15:10;;;;;;;0.20;0.20;;;;;;;13.66;100.00;102427.78;10630502;27;20478;-78
2022/10/26 22:20:11;;;;;;;1.13;0.55;;;;;;;13.80;100.00;102426.59;10629876;27;20035;-78
2022/10/26 22:25:13;;;;;;;1.05;0.32;;;;;;;13.79;100.00;102422.22;10631407;27;20099;-77
2022/10/26 22:30:15;;;;;;;0.30;0.30;;;;;;;13.92;100.00;102419.25;10611100;27;20513;-77
2022/10/26 22:35:16;;;;;;;0.43;0.20;;;;;;;14.13;100.00;102415.66;10612635;27;20047;-77
2022/10/26 22:40:30;;;;;;;0.38;0.38;;;;;;;14.12;100.00;102416.50;10629634;27;20186;-77
2022/10/26 22:45:31;;;;;;;0.55;0.30;;;;;;;14.21;100.00;102418.56;10629015;27;20043;-77
2022/10/26 22:50:33;;;;;;;0.00;0.00;;;;;;;14.28;100.00;102420.53;10610395;27;20138;-77
2022/10/26 22:55:34;;;;;;;0.40;0.40;;;;;;;14.23;100.00;102414.28;10628480;27;20046;-76
2022/10/26 23:00:36;;;;;;;0.32;0.32;;;;;;;14.16;100.00;102415.78;10610056;27;20462;-77
2022/10/26 23:05:47;;;;;;;0.28;0.20;;;;;;;14.17;100.00;102416.66;10628436;27;20450;-77
2022/10/26 23:10:48;;;;;;;0.65;0.32;;;;;;;14.16;100.00;102414.88;10628967;27;20077;-77
2022/10/26 23:15:50;;;;;;;0.20;0.10;;;;;;;13.92;100.00;102414.06;10628421;27;20427;-77
2022/10/26 23:20:51;;;;;;;0.15;0.15;;;;;;;13.77;100.00;102421.28;10608866;27;20088;-77
2022/10/26 23:25:53;;;;;;;0.05;0.05;;;;;;;13.73;100.00;102434.97;10627250;27;20402;-77
2022/10/26 23:30:55;;;;;;;0.25;0.17;;;;;;;13.63;100.00;102439.78;10627127;27;20082;-77
2022/10/26 23:35:56;;;;;;;0.38;0.25;;;;;;;13.54;100.00;102444.59;10628243;27;20378;-77
2022/10/26 23:40:59;;;;;;;0.85;0.43;;;;;;;13.68;100.00;102452.00;10608341;27;20131;-77
2022/10/26 23:46:00;;;;;;;1.17;0.35;;;;;;;13.71;100.00;102458.19;10626492;27;20118;-77
2022/10/26 23:51:02;;;;;;;0.35;0.30;;;;;;;13.58;100.00;102462.06;10608040;27;20062;-77